createdAt,value
2018-01-30T00:01:00.804Z,71.78
2018-01-30T00:03:29.125Z,71.94
2018-01-30T00:05:57.675Z,71.64
2018-01-30T00:08:26.029Z,72.80
2018-01-30T00:10:54.353Z,74.04
2018-01-30T00:13:22.702Z,73.59
2018-01-30T00:15:51.484Z,73.05
2018-01-30T00:18:19.811Z,72.76
2018-01-30T00:20:48.879Z,72.74
2018-01-30T00:23:17.252Z,73.22
2018-01-30T00:25:45.549Z,73.49
2018-01-30T00:28:13.866Z,73.64
2018-01-30T00:30:42.997Z,72.86
2018-01-30T00:33:11.314Z,73.54
2018-01-30T00:35:40.384Z,74.20
2018-01-30T00:38:09.024Z,73.83
2018-01-30T00:40:37.329Z,72.88
2018-01-30T00:43:05.624Z,72.69
2018-01-30T00:45:33.948Z,72.58
2018-01-30T00:48:03.044Z,72.78
2018-01-30T00:50:32.105Z,72.89
2018-01-30T00:53:00.927Z,72.84
2018-01-30T00:55:29.237Z,72.92
2018-01-30T00:57:57.585Z,72.07
2018-01-30T01:00:27.102Z,73.31
2018-01-30T01:02:55.507Z,73.11
2018-01-30T01:05:23.804Z,72.67
2018-01-30T01:07:52.151Z,73.16
2018-01-30T01:10:20.472Z,73.41
2018-01-30T01:12:48.786Z,74.10
2018-01-30T01:15:17.168Z,74.49
2018-01-30T01:17:45.496Z,74.07
2018-01-30T01:20:13.820Z,73.41
2018-01-30T01:22:42.357Z,73.40
2018-01-30T01:25:10.662Z,73.87
2018-01-30T01:27:38.968Z,73.69
2018-01-30T01:30:07.555Z,73.24
2018-01-30T01:32:35.861Z,72.74
2018-01-30T01:35:04.183Z,72.52
2018-01-30T01:37:33.336Z,72.63
2018-01-30T01:40:01.672Z,73.29
2018-01-30T01:42:29.993Z,73.75
2018-01-30T01:44:58.510Z,73.68
2018-01-30T01:47:26.816Z,73.61
2018-01-30T01:49:55.928Z,73.56
2018-01-30T01:52:24.259Z,74.06
2018-01-30T01:54:52.576Z,74.36
2018-01-30T01:57:20.921Z,74.17
2018-01-30T01:59:49.272Z,74.47
2018-01-30T02:02:17.590Z,74.01
2018-01-30T02:04:46.666Z,74.42
2018-01-30T02:07:15.803Z,75.15
2018-01-30T02:09:44.112Z,74.48
2018-01-30T02:12:12.417Z,74.28
2018-01-30T02:14:40.752Z,74.06
2018-01-30T02:17:09.080Z,73.90
2018-01-30T02:19:37.419Z,74.43
2018-01-30T02:22:05.756Z,74.75
2018-01-30T02:24:34.859Z,75.19
2018-01-30T02:27:04.000Z,75.50
2018-01-30T02:29:32.619Z,74.73
2018-01-30T02:32:01.017Z,74.76
2018-01-30T02:34:29.344Z,74.79
2018-01-30T02:36:57.665Z,74.48
2018-01-30T02:39:25.969Z,74.02
2018-01-30T02:41:55.060Z,74.07
2018-01-30T02:44:23.884Z,74.23
2018-01-30T02:46:52.220Z,74.03
2018-01-30T02:49:20.611Z,73.86
2018-01-30T02:51:49.633Z,73.81
2018-01-30T02:54:17.940Z,73.93
2018-01-30T02:56:47.016Z,73.38
2018-01-30T02:59:15.360Z,73.64
2018-01-30T03:01:43.679Z,73.34
2018-01-30T03:04:12.032Z,72.82
2018-01-30T03:06:40.370Z,73.44
2018-01-30T03:09:08.739Z,74.22
2018-01-30T03:11:37.080Z,74.89
2018-01-30T03:14:06.787Z,74.72
2018-01-30T03:16:35.128Z,74.35
2018-01-30T03:19:03.574Z,74.04
2018-01-30T03:21:33.180Z,73.91
2018-01-30T03:24:02.459Z,74.16
2018-01-30T03:26:30.836Z,73.94
2018-01-30T03:28:59.243Z,74.43
2018-01-30T03:31:27.587Z,74.46
2018-01-30T03:33:55.897Z,75.27
2018-01-30T03:36:25.187Z,75.30
2018-01-30T03:38:54.276Z,74.91
2018-01-30T03:41:23.386Z,74.97
2018-01-30T03:43:52.562Z,75.39
2018-01-30T03:46:20.876Z,75.09
2018-01-30T03:48:49.207Z,74.92
2018-01-30T03:51:17.641Z,74.84
2018-01-30T03:53:45.987Z,75.27
2018-01-30T03:56:14.311Z,75.67
2018-01-30T03:58:43.276Z,76.13
2018-01-30T04:01:12.409Z,76.23
2018-01-30T04:03:40.793Z,75.79
2018-01-30T04:06:09.188Z,75.91
2018-01-30T04:08:37.557Z,75.42
2018-01-30T04:11:05.865Z,75.23
2018-01-30T04:13:34.277Z,75.31
2018-01-30T04:16:02.635Z,74.75
2018-01-30T04:18:31.302Z,75.10
2018-01-30T04:20:59.948Z,75.38
2018-01-30T04:23:28.252Z,74.35
2018-01-30T04:25:56.691Z,74.26
2018-01-30T04:28:25.061Z,73.89
2018-01-30T04:30:53.425Z,74.24
2018-01-30T04:33:22.612Z,74.03
2018-01-30T04:35:51.232Z,74.26
2018-01-30T04:38:19.564Z,74.74
2018-01-30T04:40:48.002Z,75.38
2018-01-30T04:43:17.052Z,75.58
2018-01-30T04:45:45.402Z,75.52
2018-01-30T04:48:13.704Z,75.38
2018-01-30T04:50:42.079Z,75.77
2018-01-30T04:53:10.397Z,76.67
2018-01-30T04:55:38.759Z,76.06
2018-01-30T04:58:07.223Z,76.01
2018-01-30T05:00:35.705Z,75.77
2018-01-30T05:03:04.131Z,75.55
2018-01-30T05:05:32.891Z,76.28
2018-01-30T05:08:01.353Z,76.11
2018-01-30T05:10:29.736Z,75.97
2018-01-30T05:12:58.549Z,76.27
2018-01-30T05:15:26.927Z,75.96
2018-01-30T05:17:56.008Z,75.20
2018-01-30T05:20:25.126Z,75.14
2018-01-30T05:22:53.482Z,75.08
2018-01-30T05:25:21.790Z,75.27
2018-01-30T05:27:50.217Z,75.83
2018-01-30T05:30:18.520Z,76.21
2018-01-30T05:32:46.847Z,75.97
2018-01-30T05:35:15.191Z,76.41
2018-01-30T05:37:44.390Z,75.68
2018-01-30T05:40:12.706Z,75.68
2018-01-30T05:42:41.047Z,75.91
2018-01-30T05:45:10.135Z,75.83
2018-01-30T05:47:39.260Z,76.19
2018-01-30T05:50:08.689Z,76.12
2018-01-30T05:52:36.995Z,76.25
2018-01-30T05:55:05.391Z,76.48
2018-01-30T05:57:34.512Z,76.19
2018-01-30T06:00:02.855Z,76.37
2018-01-30T06:02:31.200Z,76.36
2018-01-30T06:04:59.569Z,76.24
2018-01-30T06:07:27.895Z,76.02
2018-01-30T06:09:56.222Z,76.66
2018-01-30T06:12:24.669Z,77.12
2018-01-30T06:14:52.981Z,76.97
2018-01-30T06:17:21.292Z,77.96
2018-01-30T06:19:49.846Z,77.57
2018-01-30T06:22:18.160Z,77.90
2018-01-30T06:24:46.462Z,78.06
2018-01-30T06:27:15.601Z,77.32
2018-01-30T06:29:43.909Z,76.96
2018-01-30T06:32:12.215Z,77.55
2018-01-30T06:34:41.928Z,77.21
2018-01-30T06:37:11.059Z,76.87
2018-01-30T06:39:39.404Z,76.51
2018-01-30T06:42:08.523Z,76.15
2018-01-30T06:44:36.917Z,76.00
2018-01-30T06:47:05.283Z,75.65
2018-01-30T06:49:34.384Z,76.07
2018-01-30T06:52:02.791Z,75.84
2018-01-30T06:54:31.084Z,75.26
2018-01-30T06:56:59.652Z,75.10
2018-01-30T06:59:28.055Z,74.98
2018-01-30T07:01:56.428Z,74.73
2018-01-30T07:04:24.781Z,74.54
2018-01-30T07:06:53.107Z,74.77
2018-01-30T07:09:22.175Z,74.53
2018-01-30T07:11:50.516Z,75.51
2018-01-30T07:14:18.852Z,75.32
2018-01-30T07:16:47.176Z,75.09
2018-01-30T07:19:16.010Z,75.25
2018-01-30T07:21:44.329Z,74.88
2018-01-30T07:24:12.715Z,74.08
2018-01-30T07:26:41.075Z,73.38
2018-01-30T07:29:09.389Z,73.00
2018-01-30T07:31:37.724Z,73.11
2018-01-30T07:34:06.863Z,73.12
2018-01-30T07:36:35.205Z,72.98
2018-01-30T07:39:03.649Z,73.46
2018-01-30T07:41:32.292Z,73.50
2018-01-30T07:44:00.618Z,73.45
2018-01-30T07:46:28.960Z,73.19
2018-01-30T07:48:57.321Z,74.12
2018-01-30T07:51:25.655Z,74.05
2018-01-30T07:53:54.042Z,72.21
2018-01-30T07:56:22.485Z,69.39
2018-01-30T07:58:50.828Z,66.56
2018-01-30T08:01:20.040Z,64.37
2018-01-30T08:03:48.653Z,64.27
2018-01-30T08:06:16.946Z,67.00
2018-01-30T08:08:45.356Z,66.13
2018-01-30T08:11:14.499Z,66.11
2018-01-30T08:13:42.807Z,66.59
2018-01-30T08:16:11.101Z,67.48
2018-01-30T08:18:40.312Z,67.78
2018-01-30T08:21:09.399Z,67.42
2018-01-30T08:23:37.741Z,67.36
2018-01-30T08:26:07.262Z,65.56
2018-01-30T08:28:35.615Z,64.34
2018-01-30T08:31:03.938Z,63.29
2018-01-30T08:33:32.280Z,65.49
2018-01-30T08:36:00.587Z,67.49
2018-01-30T08:38:28.904Z,66.78
2018-01-30T08:40:57.281Z,68.63
2018-01-30T08:43:25.597Z,68.53
2018-01-30T08:45:53.924Z,66.27
2018-01-30T08:48:22.604Z,65.17
2018-01-30T08:50:50.932Z,64.28
2018-01-30T08:53:19.256Z,64.36
2018-01-30T08:55:47.587Z,66.14
2018-01-30T08:58:15.907Z,66.28
2018-01-30T09:00:44.222Z,67.50
2018-01-30T09:03:12.561Z,67.47
2018-01-30T09:05:40.866Z,68.31
2018-01-30T09:08:09.953Z,69.19
2018-01-30T09:10:39.401Z,68.54
2018-01-30T09:13:07.711Z,68.90
2018-01-30T09:15:42.851Z,67.04
2018-01-30T09:18:11.191Z,61.65
2018-01-30T09:20:39.558Z,58.90
2018-01-30T09:23:08.288Z,58.63
2018-01-30T09:25:36.628Z,56.14
2018-01-30T09:28:04.960Z,53.48
2018-01-30T09:30:33.893Z,50.86
2018-01-30T09:33:02.196Z,48.25
2018-01-30T09:35:30.519Z,46.43
2018-01-30T09:37:58.841Z,48.49
2018-01-30T09:40:27.148Z,50.84
2018-01-30T09:42:55.585Z,52.13
2018-01-30T09:45:23.961Z,52.69
2018-01-30T09:47:52.283Z,56.07
2018-01-30T09:50:20.612Z,60.40
2018-01-30T09:52:49.218Z,62.44
2018-01-30T09:58:03.515Z,62.59
2018-01-30T10:00:31.966Z,64.12
2018-01-30T10:03:00.299Z,64.02
2018-01-30T10:05:28.664Z,64.03
2018-01-30T10:07:57.036Z,63.74
2018-01-30T10:10:25.355Z,61.84
2018-01-30T10:12:54.097Z,61.83
2018-01-30T10:15:22.423Z,63.13
2018-01-30T10:17:50.773Z,63.92
2018-01-30T10:20:19.124Z,63.86
2018-01-30T10:22:47.429Z,57.74
2018-01-30T10:25:15.731Z,48.58
2018-01-30T10:27:44.088Z,49.51
2018-01-30T10:30:12.422Z,51.79
2018-01-30T10:32:40.757Z,53.89
2018-01-30T10:35:10.249Z,55.77
2018-01-30T10:37:38.816Z,55.21
2018-01-30T10:40:07.130Z,53.54
2018-01-30T10:42:35.475Z,55.47
2018-01-30T10:45:03.797Z,57.12
2018-01-30T10:47:32.125Z,58.36
2018-01-30T10:50:00.488Z,54.45
2018-01-30T10:52:28.800Z,50.04
2018-01-30T10:54:57.893Z,48.68
2018-01-30T10:57:26.370Z,49.13
2018-01-30T10:59:54.683Z,49.75
2018-01-30T11:02:23.041Z,47.79
2018-01-30T11:04:51.429Z,43.77
2018-01-30T11:07:19.763Z,41.21
2018-01-30T11:09:48.114Z,42.68
2018-01-30T11:12:16.500Z,46.23
2018-01-30T11:14:44.825Z,47.96
2018-01-30T11:17:13.665Z,49.31
2018-01-30T11:19:42.362Z,47.87
2018-01-30T11:22:10.749Z,49.83
2018-01-30T11:24:39.093Z,52.26
2018-01-30T11:27:07.446Z,52.22
2018-01-30T11:29:35.821Z,54.29
2018-01-30T11:32:04.152Z,54.72
2018-01-30T11:34:32.509Z,54.96
2018-01-30T11:37:00.892Z,55.64
2018-01-30T11:39:29.199Z,57.63
2018-01-30T11:41:57.923Z,58.03
2018-01-30T11:44:26.264Z,58.94
2018-01-30T11:46:54.636Z,57.78
2018-01-30T11:49:23.020Z,57.04
2018-01-30T11:51:51.431Z,57.51
2018-01-30T11:54:19.751Z,56.41
2018-01-30T11:56:48.875Z,55.64
2018-01-30T11:59:17.200Z,53.36
2018-01-30T12:01:46.343Z,51.78
2018-01-30T12:04:15.005Z,49.78
2018-01-30T12:06:44.110Z,50.11
2018-01-30T12:09:12.434Z,51.20
2018-01-30T12:11:40.752Z,51.77
2018-01-30T12:14:09.884Z,53.86
2018-01-30T12:16:38.212Z,54.91
2018-01-30T12:19:06.568Z,54.33
2018-01-30T12:21:34.928Z,53.85
2018-01-30T12:24:03.330Z,54.12
2018-01-30T12:26:32.062Z,53.02
2018-01-30T12:29:01.133Z,51.46
2018-01-30T12:31:29.468Z,47.53
2018-01-30T12:33:57.840Z,43.27
2018-01-30T12:36:26.160Z,42.21
2018-01-30T12:38:54.476Z,43.35
2018-01-30T12:41:22.892Z,45.06
2018-01-30T12:43:51.992Z,48.75
2018-01-30T12:46:20.337Z,47.94
2018-01-30T12:48:49.087Z,44.94
2018-01-30T12:51:17.413Z,45.15
2018-01-30T12:53:45.730Z,49.30
2018-01-30T12:56:14.088Z,49.13
2018-01-30T12:58:42.490Z,49.84
2018-01-30T13:01:10.821Z,49.99
2018-01-30T13:03:39.193Z,50.32
2018-01-30T13:06:07.544Z,50.56
2018-01-30T13:08:36.625Z,52.16
2018-01-30T13:11:05.325Z,52.68
2018-01-30T13:13:33.778Z,53.02
2018-01-30T13:16:02.137Z,51.95
2018-01-30T13:18:30.483Z,52.45
2018-01-30T13:20:58.892Z,51.34
2018-01-30T13:23:27.220Z,50.41
2018-01-30T13:25:55.560Z,48.17
2018-01-30T13:28:24.645Z,45.94
2018-01-30T13:30:52.969Z,46.40
2018-01-30T13:33:21.547Z,45.47
2018-01-30T13:35:49.881Z,43.78
2018-01-30T13:38:18.200Z,39.40
2018-01-30T13:40:46.531Z,37.77
2018-01-30T13:43:14.910Z,42.32
2018-01-30T13:45:43.236Z,42.86
2018-01-30T13:48:11.606Z,43.53
2018-01-30T13:50:39.958Z,46.01
2018-01-30T13:53:08.290Z,47.64
2018-01-30T13:55:37.898Z,48.48
2018-01-30T13:58:07.036Z,50.14
2018-01-30T14:00:36.481Z,50.54
2018-01-30T14:03:04.849Z,51.08
2018-01-30T14:05:33.194Z,52.00
2018-01-30T14:08:01.502Z,48.66
2018-01-30T14:10:29.864Z,44.92
2018-01-30T14:12:58.578Z,41.59
2018-01-30T14:15:27.559Z,44.32
2018-01-30T14:17:56.719Z,46.24
2018-01-30T14:20:24.992Z,49.00
2018-01-30T14:22:53.282Z,48.85
2018-01-30T14:25:21.771Z,49.34
2018-01-30T14:27:50.099Z,50.03
2018-01-30T14:30:18.530Z,47.08
2018-01-30T14:32:46.882Z,44.42
2018-01-30T14:35:15.967Z,42.14
2018-01-30T14:37:45.081Z,40.71
2018-01-30T14:40:13.833Z,41.55
2018-01-30T14:42:42.139Z,40.43
2018-01-30T14:45:11.210Z,40.60
2018-01-30T14:47:39.533Z,41.82
2018-01-30T14:50:07.837Z,43.16
2018-01-30T14:52:36.133Z,43.79
2018-01-30T14:55:04.476Z,44.91
2018-01-30T14:57:32.820Z,47.10
2018-01-30T15:00:01.925Z,48.15
2018-01-30T15:02:31.300Z,49.53
2018-01-30T15:04:59.631Z,51.67
2018-01-30T15:07:27.987Z,51.83
2018-01-30T15:09:56.337Z,52.42
2018-01-30T15:12:24.764Z,53.14
2018-01-30T15:14:53.084Z,54.42
2018-01-30T15:17:21.465Z,54.62
2018-01-30T15:19:49.836Z,54.14
2018-01-30T15:22:18.143Z,54.88
2018-01-30T15:24:47.540Z,55.64
2018-01-30T15:27:16.659Z,55.76
2018-01-30T15:29:44.988Z,55.82
2018-01-30T15:32:13.334Z,55.66
2018-01-30T15:34:41.639Z,55.96
2018-01-30T15:37:09.971Z,55.77
2018-01-30T15:39:38.312Z,56.16
2018-01-30T15:42:06.624Z,56.32
2018-01-30T15:44:35.704Z,57.63
2018-01-30T15:47:04.754Z,58.15
2018-01-30T15:49:33.067Z,58.06
2018-01-30T15:52:01.367Z,57.84
2018-01-30T15:54:30.452Z,58.34
2018-01-30T15:56:59.144Z,58.63
2018-01-30T15:59:28.256Z,58.69
2018-01-30T16:01:56.612Z,59.48
2018-01-30T16:04:24.934Z,59.71
2018-01-30T16:06:53.252Z,59.80
2018-01-30T16:09:22.067Z,60.20
2018-01-30T16:11:51.163Z,60.35
2018-01-30T16:14:19.681Z,60.22
2018-01-30T16:16:48.134Z,60.42
2018-01-30T16:19:16.424Z,60.66
2018-01-30T16:21:44.813Z,60.68
2018-01-30T16:24:13.143Z,60.91
2018-01-30T16:26:41.453Z,60.54
2018-01-30T16:29:10.535Z,60.09
2018-01-30T16:31:39.266Z,60.13
2018-01-30T16:34:07.625Z,60.73
2018-01-30T16:36:35.955Z,59.79
2018-01-30T16:39:04.296Z,60.34
2018-01-30T16:41:32.632Z,60.47
2018-01-30T16:44:00.964Z,59.96
2018-01-30T16:46:29.326Z,59.77
2018-01-30T16:48:57.665Z,60.37
2018-01-30T16:51:25.986Z,60.41
2018-01-30T16:53:54.441Z,60.87
2018-01-30T16:56:22.772Z,60.79
2018-01-30T16:58:51.423Z,60.68
2018-01-30T17:01:19.781Z,61.18
2018-01-30T17:03:48.106Z,60.86
2018-01-30T17:06:16.459Z,60.92
2018-01-30T17:08:44.808Z,61.08
2018-01-30T17:11:13.151Z,60.92
2018-01-30T17:13:41.484Z,61.61
2018-01-30T17:16:10.163Z,62.17
2018-01-30T17:18:39.272Z,62.31
2018-01-30T17:21:07.604Z,63.68
2018-01-30T17:23:36.159Z,64.18
2018-01-30T17:26:04.476Z,64.06
2018-01-30T17:28:33.328Z,63.79
2018-01-30T17:31:01.683Z,64.22
2018-01-30T17:33:29.989Z,64.33
2018-01-30T17:35:58.320Z,63.49
2018-01-30T17:38:26.890Z,63.47
2018-01-30T17:40:55.232Z,63.82
2018-01-30T17:43:23.581Z,64.19
2018-01-30T17:45:51.942Z,64.97
2018-01-30T17:48:20.407Z,65.37
2018-01-30T17:50:49.620Z,64.80
2018-01-30T17:53:18.003Z,64.46
2018-01-30T17:55:47.078Z,64.47
2018-01-30T17:58:16.178Z,65.74
2018-01-30T18:00:45.020Z,66.18
2018-01-30T18:03:13.335Z,67.01
2018-01-30T18:05:41.665Z,66.67
2018-01-30T18:08:10.011Z,66.78
2018-01-30T18:10:39.116Z,66.78
2018-01-30T18:13:07.472Z,66.39
2018-01-30T18:15:35.809Z,66.52
2018-01-30T18:18:04.184Z,66.98
2018-01-30T18:20:32.503Z,67.69
2018-01-30T18:23:01.079Z,67.49
2018-01-30T18:25:29.415Z,68.41
2018-01-30T18:27:57.721Z,68.32
2018-01-30T18:30:26.075Z,68.54
2018-01-30T18:32:54.479Z,68.40
2018-01-30T18:35:23.568Z,69.68
2018-01-30T18:37:52.693Z,69.77
2018-01-30T18:40:21.014Z,68.00
2018-01-30T18:42:49.409Z,68.87
2018-01-30T18:45:18.063Z,69.13
2018-01-30T18:47:46.388Z,67.72
2018-01-30T18:50:14.726Z,68.43
2018-01-30T18:52:43.991Z,68.59
2018-01-30T18:55:12.303Z,68.80
2018-01-30T18:57:40.630Z,68.59
2018-01-30T19:00:08.993Z,68.30
2018-01-30T19:02:37.336Z,68.35
2018-01-30T19:05:05.680Z,67.74
2018-01-30T19:07:34.510Z,67.71
2018-01-30T19:10:02.830Z,67.94
2018-01-30T19:12:31.176Z,68.24
2018-01-30T19:14:59.899Z,67.83
2018-01-30T19:17:28.323Z,68.29
2018-01-30T19:19:56.663Z,68.69
2018-01-30T19:22:25.120Z,69.79
2018-01-30T19:24:53.447Z,69.73
2018-01-30T19:27:21.802Z,69.88
2018-01-30T19:29:50.384Z,69.94
2018-01-30T19:32:18.717Z,69.55
2018-01-30T19:34:47.013Z,70.04
2018-01-30T19:37:15.369Z,70.51
2018-01-30T19:39:43.836Z,70.39
2018-01-30T19:42:12.907Z,69.98
2018-01-30T19:44:41.251Z,70.15
2018-01-30T19:47:09.588Z,70.59
2018-01-30T19:49:38.674Z,69.88
2018-01-30T19:52:07.491Z,69.54
2018-01-30T19:54:35.823Z,69.58
2018-01-30T19:57:04.175Z,69.51
2018-01-30T19:59:32.517Z,69.20
2018-01-30T20:02:00.836Z,69.05
2018-01-30T20:04:29.146Z,68.83
2018-01-30T20:06:57.505Z,69.21
2018-01-30T20:09:25.846Z,69.11
2018-01-30T20:11:54.244Z,69.16
2018-01-30T20:14:23.009Z,68.80
2018-01-30T20:16:51.344Z,69.51
2018-01-30T20:19:19.724Z,69.36
2018-01-30T20:21:48.051Z,69.91
2018-01-30T20:24:16.533Z,70.32
2018-01-30T20:26:45.756Z,70.38
2018-01-30T20:29:14.136Z,69.75
2018-01-30T20:31:42.441Z,70.16
2018-01-30T20:34:10.884Z,69.92
2018-01-30T20:36:39.386Z,70.20
2018-01-30T20:39:09.517Z,71.12
2018-01-30T20:41:37.901Z,71.16
2018-01-30T20:44:06.288Z,71.59
2018-01-30T20:46:34.631Z,70.83
2018-01-30T20:49:02.951Z,70.96
2018-01-30T20:51:31.339Z,71.38
2018-01-30T20:53:59.842Z,72.41
2018-01-30T20:56:28.217Z,73.03
2018-01-30T20:58:57.119Z,73.03
2018-01-30T21:01:25.482Z,72.78
2018-01-30T21:03:54.590Z,72.91
2018-01-30T21:06:23.718Z,73.22
2018-01-30T21:08:52.078Z,73.66
2018-01-30T21:11:20.392Z,74.21
2018-01-30T21:13:50.410Z,74.24
2018-01-30T21:16:19.635Z,74.33
2018-01-30T21:18:47.961Z,73.96
2018-01-30T21:21:16.628Z,73.99
2018-01-30T21:23:45.095Z,73.69
2018-01-30T21:26:14.203Z,74.05
2018-01-30T21:28:42.757Z,73.84
2018-01-30T21:31:11.291Z,73.71
2018-01-30T21:33:39.629Z,73.79
2018-01-30T21:36:08.756Z,73.31
2018-01-30T21:38:37.094Z,73.26
2018-01-30T21:41:05.405Z,73.13
2018-01-30T21:43:34.215Z,73.52
2018-01-30T21:46:02.535Z,73.06
2018-01-30T21:48:30.843Z,72.69
2018-01-30T21:50:59.165Z,72.82
2018-01-30T21:53:27.487Z,73.09
2018-01-30T21:55:56.683Z,73.64
2018-01-30T21:58:25.018Z,73.25
2018-01-30T22:00:53.342Z,73.26
2018-01-30T22:03:22.454Z,73.42
2018-01-30T22:05:51.241Z,74.12
2018-01-30T22:08:19.552Z,73.69
2018-01-30T22:10:47.865Z,73.87
2018-01-30T22:13:16.207Z,73.60
2018-01-30T22:15:44.524Z,74.06
2018-01-30T22:18:12.874Z,73.40
2018-01-30T22:20:41.212Z,73.71
2018-01-30T22:23:09.524Z,74.38
2018-01-30T22:25:37.863Z,74.80
2018-01-30T22:28:07.180Z,75.14
2018-01-30T22:30:35.503Z,75.05
2018-01-30T22:33:03.837Z,75.01
2018-01-30T22:35:32.180Z,75.33
2018-01-30T22:38:00.528Z,74.25
2018-01-30T22:40:28.894Z,73.88
2018-01-30T22:42:57.272Z,73.68
2018-01-30T22:45:25.588Z,73.74
